TW-0011 weather

Hsinchu Air Force Hospital Heliport
Hsinchu, Hsinchu (city), Taiwan

Public forecast

Using degrees Celsius for public forecast. Weather courtesy of forecast.io.

Closest aviation weather report (METAR) to Hsinchu Air Force Hospital Heliport

Closest report is Taiwan Taoyuan International Airport, 21.5 nm (39.9 km) NE. Retrieved 2020/04/03 01:30 UTC (12 minutes ago):

RCTP 030130Z 06014KT 9999 -RA FEW012 BKN020 BKN060 20/18 Q1019 NOSIG RMK A3009

Closest aviation forecast (TAF) to Hsinchu Air Force Hospital Heliport

Forecast is more than 12 hours old.

Closest forecast is Hsinchu Air Base, 1.3 nm (2.3 km) W. Retrieved 2015/08/01 06:46 UTC (5 years ago):

TAF RCPO 010500Z 0106/0206 27010KT 9999 FEW020 TX33/0106Z TN27/0120Z BECMG 0111/0114 21004KT TEMPO 0118/0123 FEW020 BKN120 BECMG 0202/0205 33010KT